createdAt,value
2019-02-11T00:02:11.725Z,49.42
2019-02-11T00:04:44.452Z,47.80
2019-02-11T00:07:16.623Z,47.53
2019-02-11T00:09:48.902Z,48.60
2019-02-11T00:12:21.048Z,49.98
2019-02-11T00:14:53.531Z,54.73
2019-02-11T00:17:25.845Z,58.28
2019-02-11T00:19:58.043Z,62.65
2019-02-11T00:22:30.752Z,65.87
2019-02-11T00:25:03.354Z,55.20
2019-02-11T00:27:35.826Z,53.38
2019-02-11T00:30:10.563Z,58.92
2019-02-11T00:32:42.824Z,52.95
2019-02-11T00:35:15.026Z,50.55
2019-02-11T00:37:47.702Z,51.88
2019-02-11T00:40:20.144Z,52.38
2019-02-11T00:42:52.359Z,51.98
2019-02-11T00:45:24.742Z,53.78
2019-02-11T00:47:56.998Z,51.42
2019-02-11T00:50:29.506Z,53.45
2019-02-11T00:53:01.792Z,52.00
2019-02-11T00:55:34.184Z,53.20
2019-02-11T00:58:06.475Z,54.98
2019-02-11T01:00:38.886Z,54.77
2019-02-11T01:03:11.460Z,54.88
2019-02-11T01:05:44.154Z,57.05
2019-02-11T01:08:16.339Z,54.63
2019-02-11T01:10:48.763Z,53.30
2019-02-11T01:13:27.511Z,51.60
2019-02-11T01:15:54.846Z,53.80
2019-02-11T01:18:27.835Z,54.85
2019-02-11T01:21:00.450Z,50.28
2019-02-11T01:23:32.893Z,54.67
2019-02-11T01:26:05.071Z,54.18
2019-02-11T01:28:37.544Z,49.23
2019-02-11T01:31:09.994Z,49.88
2019-02-11T01:33:42.575Z,51.28
2019-02-11T01:36:14.967Z,46.68
2019-02-11T01:38:47.158Z,49.83
2019-02-11T01:41:19.292Z,47.53
2019-02-11T01:43:51.465Z,43.80
2019-02-11T01:46:23.763Z,45.65
2019-02-11T01:48:56.293Z,43.52
2019-02-11T01:51:29.012Z,45.08
2019-02-11T01:54:01.208Z,43.00
2019-02-11T01:56:33.517Z,41.80
2019-02-11T01:59:05.923Z,40.78
2019-02-11T02:01:38.190Z,41.98
2019-02-11T02:04:10.597Z,41.42
2019-02-11T02:06:42.906Z,42.98
2019-02-11T02:09:15.364Z,41.90
2019-02-11T02:11:47.677Z,40.85
2019-02-11T02:14:20.058Z,40.90
2019-02-11T02:16:54.206Z,41.35
2019-02-11T02:19:26.534Z,41.95
2019-02-11T02:21:59.081Z,42.88
2019-02-11T02:24:31.458Z,42.98
2019-02-11T02:27:04.109Z,43.20
2019-02-11T02:29:36.816Z,43.52
2019-02-11T02:32:09.310Z,46.40
2019-02-11T02:34:41.498Z,48.05
2019-02-11T02:37:15.110Z,48.85
2019-02-11T02:39:47.358Z,47.58
2019-02-11T02:42:19.866Z,48.15
2019-02-11T02:44:52.077Z,46.92
2019-02-11T02:47:24.530Z,46.08
2019-02-11T02:49:57.014Z,46.53
2019-02-11T02:52:29.794Z,47.03
2019-02-11T02:55:02.078Z,44.35
2019-02-11T02:57:34.554Z,45.17
2019-02-11T03:00:09.247Z,45.35
2019-02-11T03:02:42.006Z,46.35
2019-02-11T03:05:14.500Z,47.05
2019-02-11T03:07:46.850Z,46.00
2019-02-11T03:10:19.141Z,43.25
2019-02-11T03:12:51.352Z,43.48
2019-02-11T03:15:23.657Z,41.73
2019-02-11T03:17:55.925Z,43.42
2019-02-11T03:20:28.282Z,41.85
2019-02-11T03:23:00.584Z,41.20
2019-02-11T03:25:32.893Z,42.10
2019-02-11T03:28:05.636Z,41.95
2019-02-11T03:30:38.266Z,40.90
2019-02-11T03:33:10.698Z,40.17
2019-02-11T03:35:42.928Z,39.78
2019-02-11T03:38:15.183Z,39.70
2019-02-11T03:40:47.767Z,41.42
2019-02-11T03:43:19.928Z,38.75
2019-02-11T03:45:52.236Z,38.80
2019-02-11T03:48:24.417Z,39.27
2019-02-11T03:50:56.873Z,37.78
2019-02-11T03:53:29.452Z,35.85
2019-02-11T03:56:02.131Z,37.13
2019-02-11T03:58:34.499Z,35.68
2019-02-11T04:01:06.979Z,36.17
2019-02-11T04:03:39.203Z,36.83
2019-02-11T04:06:11.929Z,37.15
2019-02-11T04:08:44.520Z,35.73
2019-02-11T04:11:17.455Z,35.00
2019-02-11T04:13:49.807Z,34.65
2019-02-11T04:16:22.412Z,35.38
2019-02-11T04:18:54.584Z,35.83
2019-02-11T04:21:26.714Z,33.95
2019-02-11T04:23:59.218Z,35.92
2019-02-11T04:26:32.815Z,36.73
2019-02-11T04:29:05.344Z,35.70
2019-02-11T04:31:37.797Z,35.55
2019-02-11T04:34:10.478Z,34.85
2019-02-11T04:36:42.882Z,35.78
2019-02-11T04:39:15.777Z,34.78
2019-02-11T04:41:47.969Z,34.90
2019-02-11T04:44:20.658Z,34.53
2019-02-11T04:46:53.569Z,33.83
2019-02-11T04:49:26.278Z,34.27
2019-02-11T04:51:58.959Z,33.48
2019-02-11T04:54:31.390Z,33.92
2019-02-11T04:57:03.554Z,35.43
2019-02-11T04:59:35.845Z,34.08
2019-02-11T05:02:08.338Z,33.75
2019-02-11T05:04:40.905Z,34.05
2019-02-11T05:07:13.186Z,34.38
2019-02-11T05:09:45.487Z,34.80
2019-02-11T05:12:17.699Z,33.25
2019-02-11T05:14:50.199Z,34.23
2019-02-11T05:17:22.551Z,33.30
2019-02-11T05:19:55.056Z,34.70
2019-02-11T05:22:27.404Z,32.48
2019-02-11T05:24:59.641Z,34.78
2019-02-11T05:27:32.114Z,35.00
2019-02-11T05:30:04.595Z,34.48
2019-02-11T05:32:37.186Z,33.63
2019-02-11T05:35:10.310Z,34.78
2019-02-11T05:37:44.220Z,35.80
2019-02-11T05:40:16.854Z,35.30
2019-02-11T05:42:49.271Z,34.40
2019-02-11T05:45:21.442Z,35.05
2019-02-11T05:47:53.962Z,35.83
2019-02-11T05:50:26.629Z,35.52
2019-02-11T05:52:59.209Z,34.60
2019-02-11T05:55:31.489Z,36.13
2019-02-11T05:58:04.007Z,36.55
2019-02-11T06:00:36.231Z,36.53
2019-02-11T06:03:09.623Z,36.28
2019-02-11T06:05:41.957Z,35.52
2019-02-11T06:08:14.287Z,36.33
2019-02-11T06:10:46.727Z,36.08
2019-02-11T06:13:19.372Z,35.92
2019-02-11T06:15:51.722Z,35.33
2019-02-11T06:18:24.358Z,36.45
2019-02-11T06:20:56.529Z,36.28
2019-02-11T06:23:29.686Z,35.20
2019-02-11T06:26:01.938Z,37.15
2019-02-11T06:28:34.390Z,38.02
2019-02-11T06:31:07.225Z,36.73
2019-02-11T06:33:39.491Z,35.38
2019-02-11T06:36:12.901Z,38.08
2019-02-11T06:38:45.589Z,35.50
2019-02-11T06:41:18.115Z,37.63
2019-02-11T06:43:50.462Z,37.25
2019-02-11T06:46:22.832Z,36.10
2019-02-11T06:48:55.581Z,37.65
2019-02-11T06:51:27.895Z,36.33
2019-02-11T06:54:00.669Z,36.73
2019-02-11T06:56:33.191Z,37.88
2019-02-11T06:59:06.089Z,37.25
2019-02-11T07:01:38.816Z,35.80
2019-02-11T07:04:11.558Z,37.28
2019-02-11T07:06:43.766Z,37.53
2019-02-11T07:09:16.322Z,37.93
2019-02-11T07:11:48.513Z,35.65
2019-02-11T07:14:20.693Z,36.23
2019-02-11T07:16:56.386Z,37.95
2019-02-11T07:19:29.041Z,36.55
2019-02-11T07:22:01.563Z,35.43
2019-02-11T07:24:34.463Z,37.73
2019-02-11T07:27:06.886Z,36.42
2019-02-11T07:29:39.163Z,35.03
2019-02-11T07:32:11.428Z,36.05
2019-02-11T07:34:43.727Z,36.23
2019-02-11T07:37:15.959Z,35.73
2019-02-11T07:39:48.496Z,36.88
2019-02-11T07:42:22.063Z,37.30
2019-02-11T07:44:55.561Z,37.15
2019-02-11T07:47:28.257Z,38.33
2019-02-11T07:50:00.934Z,38.40
2019-02-11T07:52:33.221Z,36.77
2019-02-11T07:57:57.271Z,37.03
2019-02-11T08:00:30.008Z,35.40
2019-02-11T08:03:02.613Z,37.35
2019-02-11T08:05:34.985Z,36.50
2019-02-11T08:08:07.521Z,35.00
2019-02-11T08:10:39.810Z,37.17
2019-02-11T08:13:12.135Z,35.63
2019-02-11T08:15:44.352Z,36.48
2019-02-11T08:18:17.650Z,35.68
2019-02-11T08:20:50.818Z,35.38
2019-02-11T08:23:23.171Z,36.55
2019-02-11T08:25:55.432Z,36.55
2019-02-11T08:28:27.553Z,35.63
2019-02-11T08:30:59.916Z,37.90
2019-02-11T08:33:32.384Z,36.63
2019-02-11T08:36:04.918Z,36.83
2019-02-11T08:38:37.594Z,37.35
2019-02-11T08:41:09.785Z,37.03
2019-02-11T08:43:42.204Z,39.58
2019-02-11T08:46:14.610Z,36.77
2019-02-11T08:48:47.046Z,36.85
2019-02-11T08:51:19.359Z,37.28
2019-02-11T08:53:51.874Z,35.23
2019-02-11T08:56:24.305Z,36.73
2019-02-11T08:58:56.643Z,35.92
2019-02-11T09:01:28.951Z,37.13
2019-02-11T09:04:01.240Z,37.28
2019-02-11T09:06:34.705Z,36.03
2019-02-11T09:09:07.938Z,35.48
2019-02-11T09:11:40.523Z,35.48
2019-02-11T09:14:12.809Z,35.70
2019-02-11T09:16:45.314Z,37.45
2019-02-11T09:19:17.970Z,38.63
2019-02-11T09:21:50.795Z,36.05
2019-02-11T09:24:23.629Z,36.45
2019-02-11T09:26:56.010Z,38.30
2019-02-11T09:29:28.490Z,37.98
2019-02-11T09:32:01.232Z,36.55
2019-02-11T09:34:33.590Z,37.35
2019-02-11T09:37:05.927Z,37.25
2019-02-11T09:39:38.178Z,37.48
2019-02-11T09:42:10.717Z,36.23
2019-02-11T09:44:43.847Z,37.50
2019-02-11T09:47:16.435Z,37.17
2019-02-11T09:49:51.557Z,35.88
2019-02-11T09:52:23.930Z,37.30
2019-02-11T09:54:56.873Z,36.20
2019-02-11T09:57:29.358Z,36.50
2019-02-11T10:00:01.710Z,36.05
2019-02-11T10:02:35.005Z,36.40
2019-02-11T10:05:08.281Z,37.45
2019-02-11T10:07:40.621Z,35.58
2019-02-11T10:10:13.402Z,36.33
2019-02-11T10:12:46.065Z,35.80
2019-02-11T10:15:19.279Z,37.88
2019-02-11T10:17:51.709Z,35.40
2019-02-11T10:20:24.144Z,36.50
2019-02-11T10:22:56.495Z,36.58
2019-02-11T10:25:30.887Z,35.35
2019-02-11T10:28:05.947Z,35.08
2019-02-11T10:30:38.514Z,36.35
2019-02-11T10:33:11.214Z,35.88
2019-02-11T10:35:43.647Z,35.95
2019-02-11T10:38:16.978Z,35.05
2019-02-11T10:40:49.344Z,35.05
2019-02-11T10:43:21.660Z,36.00
2019-02-11T10:45:54.138Z,34.43
2019-02-11T10:48:26.774Z,34.88
2019-02-11T10:50:59.123Z,34.55
2019-02-11T10:53:31.479Z,32.55
2019-02-11T10:56:04.438Z,33.63
2019-02-11T10:58:36.842Z,33.60
2019-02-11T11:01:09.626Z,33.15
2019-02-11T11:03:41.939Z,33.30
2019-02-11T11:06:14.382Z,33.55
2019-02-11T11:08:47.972Z,32.98
2019-02-11T11:11:20.439Z,32.35
2019-02-11T11:13:52.813Z,33.18
2019-02-11T11:16:29.592Z,32.25
2019-02-11T11:18:59.848Z,34.15
2019-02-11T11:21:32.330Z,34.35
2019-02-11T11:24:05.060Z,34.13
2019-02-11T11:26:37.253Z,34.58
2019-02-11T11:29:10.679Z,34.35
2019-02-11T11:31:43.071Z,34.38
2019-02-11T11:34:15.879Z,34.67
2019-02-11T11:36:48.094Z,35.28
2019-02-11T11:39:23.127Z,34.03
2019-02-11T11:41:55.511Z,34.27
2019-02-11T11:44:27.968Z,33.70
2019-02-11T11:47:00.564Z,32.53
2019-02-11T11:49:32.999Z,33.50
2019-02-11T11:52:05.638Z,34.25
2019-02-11T11:54:37.852Z,33.70
2019-02-11T11:57:10.347Z,35.60
2019-02-11T11:59:43.055Z,36.42
2019-02-11T12:02:16.596Z,35.95
2019-02-11T12:04:49.078Z,34.35
2019-02-11T12:07:21.706Z,34.85
2019-02-11T12:09:54.269Z,34.70
2019-02-11T12:12:26.848Z,37.42
2019-02-11T12:14:59.223Z,35.65
2019-02-11T12:17:31.728Z,37.00
2019-02-11T12:20:04.583Z,36.42
2019-02-11T12:22:37.743Z,38.17
2019-02-11T12:25:12.397Z,37.85
2019-02-11T12:27:44.934Z,35.50
2019-02-11T12:30:19.506Z,36.40
2019-02-11T12:32:54.757Z,35.83
2019-02-11T12:35:25.844Z,37.58
2019-02-11T12:37:58.009Z,36.33
2019-02-11T12:40:30.750Z,37.08
2019-02-11T12:43:03.056Z,35.63
2019-02-11T12:45:35.459Z,36.60
2019-02-11T12:48:09.353Z,36.68
2019-02-11T12:50:41.970Z,38.38
2019-02-11T12:53:14.446Z,38.33
2019-02-11T12:55:46.775Z,39.40
2019-02-11T12:58:18.976Z,39.00
2019-02-11T13:00:51.711Z,37.90
2019-02-11T13:03:25.119Z,39.45
2019-02-11T13:05:57.772Z,38.73
2019-02-11T13:08:30.358Z,37.75
2019-02-11T13:11:02.621Z,38.23
2019-02-11T13:13:34.821Z,38.53
2019-02-11T13:16:07.415Z,38.55
2019-02-11T13:18:40.281Z,37.90
2019-02-11T13:21:12.983Z,37.42
2019-02-11T13:23:45.431Z,37.63
2019-02-11T13:26:17.658Z,36.50
2019-02-11T13:28:50.078Z,37.55
2019-02-11T13:31:22.317Z,36.35
2019-02-11T13:33:54.567Z,36.17
2019-02-11T13:36:27.082Z,36.15
2019-02-11T13:38:59.574Z,35.65
2019-02-11T13:41:32.628Z,38.20
2019-02-11T13:44:05.155Z,38.85
2019-02-11T13:46:37.602Z,40.63
2019-02-11T13:49:11.057Z,40.50
2019-02-11T13:51:43.679Z,40.63
2019-02-11T13:54:16.057Z,41.20
2019-02-11T13:56:48.317Z,40.98
2019-02-11T13:59:20.709Z,38.88
2019-02-11T14:01:53.303Z,38.92
2019-02-11T14:04:28.307Z,39.25
2019-02-11T14:06:59.633Z,38.67
2019-02-11T14:09:32.149Z,38.83
2019-02-11T14:12:04.271Z,39.53
2019-02-11T14:14:36.378Z,39.38
2019-02-11T14:17:08.733Z,38.30
2019-02-11T14:19:40.925Z,38.30
2019-02-11T14:22:14.442Z,37.58
2019-02-11T14:24:47.081Z,97.20
2019-02-11T14:27:19.326Z,39.95
2019-02-11T14:29:51.585Z,39.00
2019-02-11T14:32:36.173Z,38.00
2019-02-11T14:35:09.617Z,39.55
2019-02-11T14:37:42.510Z,40.90
2019-02-11T14:40:16.656Z,40.90
2019-02-11T14:42:49.109Z,39.53
2019-02-11T14:45:22.839Z,39.92
2019-02-11T14:47:55.523Z,41.50
2019-02-11T14:50:28.111Z,40.95
2019-02-11T14:53:00.612Z,41.15
2019-02-11T14:55:33.158Z,41.63
2019-02-11T14:58:06.088Z,42.30
2019-02-11T15:00:39.177Z,40.52
2019-02-11T15:03:11.440Z,42.90
2019-02-11T15:05:43.679Z,44.45
2019-02-11T15:08:17.561Z,47.00
2019-02-11T15:10:49.790Z,46.83
2019-02-11T15:13:22.381Z,45.73
2019-02-11T15:15:54.691Z,44.98
2019-02-11T15:18:34.080Z,45.08
2019-02-11T15:21:00.668Z,46.48
2019-02-11T15:23:36.697Z,47.03
2019-02-11T15:26:08.989Z,45.60
2019-02-11T15:28:41.674Z,45.67
2019-02-11T15:31:13.763Z,46.60
2019-02-11T15:33:46.635Z,45.10
2019-02-11T15:36:18.871Z,44.60
2019-02-11T15:38:51.149Z,45.73
2019-02-11T15:41:23.382Z,45.73
2019-02-11T15:43:55.516Z,45.08
2019-02-11T15:46:28.086Z,47.62
2019-02-11T15:49:00.409Z,47.78
2019-02-11T15:51:32.850Z,46.35
2019-02-11T15:54:05.639Z,45.98
2019-02-11T15:56:38.286Z,47.98
2019-02-11T15:59:10.592Z,46.75
2019-02-11T16:01:42.818Z,45.58
2019-02-11T16:04:17.029Z,45.00
2019-02-11T16:06:49.257Z,46.23
2019-02-11T16:09:21.406Z,48.28
2019-02-11T16:11:54.478Z,48.08
2019-02-11T16:14:26.940Z,48.48
2019-02-11T16:17:00.086Z,81.40
2019-02-11T16:19:32.549Z,53.60
2019-02-11T16:22:04.982Z,49.03
2019-02-11T16:24:37.404Z,49.23
2019-02-11T16:27:10.676Z,48.42
2019-02-11T16:29:43.277Z,48.02
2019-02-11T16:32:16.246Z,48.13
2019-02-11T16:34:48.640Z,48.35
2019-02-11T16:37:21.419Z,49.30
2019-02-11T16:39:53.918Z,48.33
2019-02-11T16:42:26.413Z,46.02
2019-02-11T16:44:59.357Z,46.98
2019-02-11T16:47:31.709Z,48.02
2019-02-11T16:50:04.337Z,48.40
2019-02-11T16:52:36.929Z,47.53
2019-02-11T16:55:11.679Z,48.25
2019-02-11T16:57:43.888Z,47.38
2019-02-11T17:00:18.707Z,49.95
2019-02-11T17:02:51.009Z,49.73
2019-02-11T17:05:23.965Z,47.20
2019-02-11T17:07:56.266Z,48.55
2019-02-11T17:10:28.812Z,46.83
2019-02-11T17:13:01.166Z,47.38
2019-02-11T17:15:33.816Z,47.80
2019-02-11T17:18:06.404Z,46.92
2019-02-11T17:20:39.612Z,48.15
2019-02-11T17:23:11.934Z,46.42
2019-02-11T17:25:44.690Z,47.27
2019-02-11T17:28:16.932Z,46.15
2019-02-11T17:30:49.241Z,47.50
2019-02-11T17:33:21.490Z,49.13
2019-02-11T17:35:54.083Z,47.17
2019-02-11T17:38:26.432Z,48.08
2019-02-11T17:40:59.040Z,46.83
2019-02-11T17:43:31.349Z,47.13
2019-02-11T17:46:03.686Z,46.60
2019-02-11T17:48:36.127Z,46.08
2019-02-11T17:51:08.932Z,44.98
2019-02-11T17:53:42.195Z,43.63
2019-02-11T17:56:14.560Z,43.90
2019-02-11T17:58:47.186Z,44.13
2019-02-11T18:01:19.385Z,42.50
2019-02-11T18:03:52.676Z,40.80
2019-02-11T18:06:24.981Z,41.20
2019-02-11T18:08:57.815Z,41.08
2019-02-11T18:11:30.017Z,40.03
2019-02-11T18:14:02.692Z,41.58
2019-02-11T18:16:35.057Z,39.80
2019-02-11T18:19:07.492Z,39.70
2019-02-11T18:21:39.934Z,40.28
2019-02-11T18:24:12.174Z,38.48
2019-02-11T18:26:44.486Z,38.88
2019-02-11T18:29:16.695Z,41.30
2019-02-11T18:31:49.252Z,41.98
2019-02-11T18:34:21.489Z,40.95
2019-02-11T18:36:54.221Z,41.65
2019-02-11T18:39:26.476Z,40.12
2019-02-11T18:41:59.021Z,40.75
2019-02-11T18:44:31.208Z,39.48
2019-02-11T18:47:03.842Z,39.40
2019-02-11T18:49:36.196Z,38.85
2019-02-11T18:52:08.896Z,37.28
2019-02-11T18:54:41.097Z,37.93
2019-02-11T18:57:13.403Z,36.75
2019-02-11T18:59:45.702Z,36.83
2019-02-11T19:02:18.011Z,36.28
2019-02-11T19:04:50.341Z,36.20
2019-02-11T19:07:22.720Z,37.93
2019-02-11T19:09:55.154Z,35.60
2019-02-11T19:12:27.546Z,35.50
2019-02-11T19:14:59.801Z,37.48
2019-02-11T19:17:32.568Z,35.60
2019-02-11T19:20:06.407Z,38.42
2019-02-11T19:22:38.939Z,36.85
2019-02-11T19:25:12.587Z,37.80
2019-02-11T19:27:44.732Z,36.13
2019-02-11T19:30:20.941Z,37.40
2019-02-11T19:32:53.419Z,38.50
2019-02-11T19:35:25.841Z,36.73
2019-02-11T19:37:59.494Z,36.73
2019-02-11T19:40:31.945Z,39.40
2019-02-11T19:43:04.421Z,38.13
2019-02-11T19:45:36.723Z,38.05
2019-02-11T19:48:08.924Z,39.05
2019-02-11T19:50:41.452Z,37.38
2019-02-11T19:53:14.609Z,37.40
2019-02-11T19:55:46.928Z,38.78
2019-02-11T19:58:19.132Z,37.98
2019-02-11T20:00:51.589Z,39.73
2019-02-11T20:03:23.792Z,37.33
2019-02-11T20:05:56.147Z,39.80
2019-02-11T20:08:28.334Z,39.08
2019-02-11T20:11:00.589Z,39.50
2019-02-11T20:13:32.906Z,40.00
2019-02-11T20:16:05.288Z,39.08
2019-02-11T20:18:37.632Z,39.20
2019-02-11T20:21:09.891Z,39.05
2019-02-11T20:23:43.065Z,39.50
2019-02-11T20:26:15.461Z,40.00
2019-02-11T20:28:48.015Z,38.98
2019-02-11T20:31:20.100Z,39.08
2019-02-11T20:33:52.621Z,39.33
2019-02-11T20:36:24.860Z,38.58
2019-02-11T20:38:57.210Z,37.88
2019-02-11T20:41:29.570Z,37.60
2019-02-11T20:44:02.067Z,36.35
2019-02-11T20:46:34.667Z,37.83
2019-02-11T20:49:07.265Z,37.10
2019-02-11T20:51:39.590Z,36.58
2019-02-11T20:54:11.952Z,37.42
2019-02-11T20:56:44.547Z,38.42
2019-02-11T20:59:16.899Z,36.90
2019-02-11T21:01:49.186Z,33.63
2019-02-11T21:04:21.658Z,36.25
2019-02-11T21:06:53.969Z,35.88
2019-02-11T21:09:26.344Z,33.98
2019-02-11T21:11:58.655Z,32.70
2019-02-11T21:14:31.368Z,33.67
2019-02-11T21:17:03.607Z,32.48
2019-02-11T21:19:36.381Z,30.52
2019-02-11T21:22:08.709Z,28.98
2019-02-11T21:24:41.065Z,28.95
2019-02-11T21:27:14.003Z,27.07
2019-02-11T21:29:46.328Z,26.10
2019-02-11T21:32:19.074Z,27.07
2019-02-11T21:34:51.995Z,25.97
2019-02-11T21:37:24.402Z,26.40
2019-02-11T21:39:57.054Z,28.05
2019-02-11T21:42:29.583Z,27.65
2019-02-11T21:45:02.196Z,27.02
2019-02-11T21:47:35.387Z,26.25
2019-02-11T21:50:10.023Z,26.23
2019-02-11T21:52:42.539Z,25.75
2019-02-11T21:55:17.489Z,25.68
2019-02-11T21:57:49.968Z,24.65
2019-02-11T22:00:24.186Z,24.23
2019-02-11T22:02:56.607Z,23.92
2019-02-11T22:05:29.164Z,24.72
2019-02-11T22:08:01.368Z,24.02
2019-02-11T22:10:33.693Z,24.05
2019-02-11T22:13:05.919Z,23.98
2019-02-11T22:15:38.168Z,22.65
2019-02-11T22:18:10.393Z,23.25
2019-02-11T22:20:42.886Z,22.65
2019-02-11T22:23:15.079Z,21.33
2019-02-11T22:25:47.420Z,21.82
2019-02-11T22:28:19.730Z,21.52
2019-02-11T22:30:52.526Z,21.35
2019-02-11T22:33:25.175Z,20.37
2019-02-11T22:35:57.616Z,21.17
2019-02-11T22:38:29.970Z,20.82
2019-02-11T22:41:02.423Z,21.17
2019-02-11T22:43:35.289Z,20.77
2019-02-11T22:46:08.014Z,20.48
2019-02-11T22:48:40.485Z,19.65
2019-02-11T22:51:13.126Z,19.40
2019-02-11T22:53:45.575Z,21.15
2019-02-11T22:56:17.866Z,21.35
2019-02-11T22:58:50.282Z,20.00
2019-02-11T23:01:22.936Z,21.50
2019-02-11T23:03:56.598Z,20.00
2019-02-11T23:06:30.018Z,21.27
2019-02-11T23:09:02.341Z,22.30
2019-02-11T23:11:36.058Z,22.90
2019-02-11T23:14:08.703Z,21.80
2019-02-11T23:16:41.024Z,21.37
2019-02-11T23:19:13.507Z,21.60
2019-02-11T23:21:45.840Z,21.62
2019-02-11T23:24:18.382Z,22.55
2019-02-11T23:26:50.595Z,21.87
2019-02-11T23:29:23.406Z,23.25
2019-02-11T23:31:55.588Z,21.93
2019-02-11T23:34:27.887Z,22.35
2019-02-11T23:37:00.769Z,22.02
2019-02-11T23:39:33.979Z,21.02
2019-02-11T23:42:06.381Z,21.52
2019-02-11T23:44:38.952Z,21.23
2019-02-11T23:47:11.330Z,21.15
2019-02-11T23:49:43.732Z,21.45
2019-02-11T23:52:16.509Z,22.48
2019-02-11T23:54:49.951Z,23.45
2019-02-11T23:57:22.386Z,22.70
2019-02-11T23:59:54.563Z,23.83
